sensor_id;sensor_type;location;lat;lon;timestamp;pressure;altitude;pressure_sealevel;temperature;humidity
72110;BME280;59983;52.010;5.420;2023-03-19T00:00:28;101075.22;;;11.47;100.00
72110;BME280;59983;52.010;5.420;2023-03-19T00:02:54;101078.63;;;11.44;100.00
72110;BME280;59983;52.010;5.420;2023-03-19T00:05:21;101076.72;;;11.45;100.00
72110;BME280;59983;52.010;5.420;2023-03-19T00:07:48;101073.44;;;11.39;100.00
72110;BME280;59983;52.010;5.420;2023-03-19T00:10:14;101085.69;;;11.33;100.00
72110;BME280;59983;52.010;5.420;2023-03-19T00:12:41;101083.31;;;11.31;100.00
72110;BME280;59983;52.010;5.420;2023-03-19T00:15:08;101083.75;;;11.33;100.00
72110;BME280;59983;52.010;5.420;2023-03-19T00:17:40;101084.13;;;11.32;100.00
72110;BME280;59983;52.010;5.420;2023-03-19T00:20:08;101082.84;;;11.29;100.00
72110;BME280;59983;52.010;5.420;2023-03-19T00:22:35;101080.94;;;11.30;100.00
72110;BME280;59983;52.010;5.420;2023-03-19T00:25:01;101087.16;;;11.30;100.00
72110;BME280;59983;52.010;5.420;2023-03-19T00:27:28;101077.53;;;11.33;100.00
72110;BME280;59983;52.010;5.420;2023-03-19T00:29:55;101088.41;;;11.33;100.00
72110;BME280;59983;52.010;5.420;2023-03-19T00:32:22;101094.06;;;11.28;100.00
72110;BME280;59983;52.010;5.420;2023-03-19T00:34:48;101095.78;;;11.20;100.00
72110;BME280;59983;52.010;5.420;2023-03-19T00:37:15;101084.56;;;11.22;100.00
72110;BME280;59983;52.010;5.420;2023-03-19T00:39:42;101097.34;;;11.21;100.00
72110;BME280;59983;52.010;5.420;2023-03-19T00:42:09;101098.38;;;11.17;100.00
72110;BME280;59983;52.010;5.420;2023-03-19T00:44:35;101084.25;;;11.11;100.00
72110;BME280;59983;52.010;5.420;2023-03-19T00:47:02;101086.63;;;11.13;100.00
72110;BME280;59983;52.010;5.420;2023-03-19T00:49:28;101088.91;;;11.11;100.00
72110;BME280;59983;52.010;5.420;2023-03-19T00:51:55;101088.09;;;11.10;100.00
72110;BME280;59983;52.010;5.420;2023-03-19T00:54:21;101095.72;;;11.04;100.00
72110;BME280;59983;52.010;5.420;2023-03-19T00:56:48;101092.06;;;11.00;100.00
72110;BME280;59983;52.010;5.420;2023-03-19T00:59:14;101086.56;;;10.97;100.00
72110;BME280;59983;52.010;5.420;2023-03-19T01:01:41;101092.28;;;10.95;100.00
72110;BME280;59983;52.010;5.420;2023-03-19T01:04:08;101091.19;;;10.84;100.00
72110;BME280;59983;52.010;5.420;2023-03-19T01:06:36;101095.16;;;10.87;100.00
72110;BME280;59983;52.010;5.420;2023-03-19T01:09:02;101100.91;;;10.85;100.00
72110;BME280;59983;52.010;5.420;2023-03-19T01:11:29;101091.09;;;10.81;100.00
72110;BME280;59983;52.010;5.420;2023-03-19T01:13:55;101090.63;;;10.78;100.00
72110;BME280;59983;52.010;5.420;2023-03-19T01:16:22;101092.56;;;10.78;100.00
72110;BME280;59983;52.010;5.420;2023-03-19T01:18:48;101094.00;;;10.75;100.00
72110;BME280;59983;52.010;5.420;2023-03-19T01:21:15;101087.13;;;10.78;100.00
72110;BME280;59983;52.010;5.420;2023-03-19T01:23:42;101093.78;;;10.81;100.00
72110;BME280;59983;52.010;5.420;2023-03-19T01:26:08;101088.13;;;10.73;100.00
72110;BME280;59983;52.010;5.420;2023-03-19T01:28:35;101087.69;;;10.71;100.00
72110;BME280;59983;52.010;5.420;2023-03-19T01:31:05;101092.00;;;10.72;100.00
72110;BME280;59983;52.010;5.420;2023-03-19T01:33:32;101088.47;;;10.72;100.00
72110;BME280;59983;52.010;5.420;2023-03-19T01:35:59;101092.56;;;10.78;100.00
72110;BME280;59983;52.010;5.420;2023-03-19T01:38:28;101091.31;;;10.75;100.00
72110;BME280;59983;52.010;5.420;2023-03-19T01:40:55;101101.59;;;10.82;100.00
72110;BME280;59983;52.010;5.420;2023-03-19T01:43:24;101098.53;;;10.84;100.00
72110;BME280;59983;52.010;5.420;2023-03-19T01:46:41;101090.03;;;10.85;100.00
72110;BME280;59983;52.010;5.420;2023-03-19T01:48:48;101101.59;;;10.82;100.00
72110;BME280;59983;52.010;5.420;2023-03-19T01:51:18;101093.78;;;10.81;100.00
72110;BME280;59983;52.010;5.420;2023-03-19T01:53:52;101094.25;;;10.83;100.00
72110;BME280;59983;52.010;5.420;2023-03-19T01:56:32;101100.69;;;10.90;100.00
72110;BME280;59983;52.010;5.420;2023-03-19T01:59:06;101107.25;;;10.89;100.00
72110;BME280;59983;52.010;5.420;2023-03-19T02:01:38;101105.41;;;10.93;100.00
72110;BME280;59983;52.010;5.420;2023-03-19T02:04:08;101095.59;;;10.89;100.00
72110;BME280;59983;52.010;5.420;2023-03-19T02:06:35;101097.97;;;10.90;100.00
72110;BME280;59983;52.010;5.420;2023-03-19T02:09:03;101095.69;;;10.92;100.00
72110;BME280;59983;52.010;5.420;2023-03-19T02:11:29;101090.41;;;10.96;100.00
72110;BME280;59983;52.010;5.420;2023-03-19T02:13:56;101087.69;;;10.96;100.00
72110;BME280;59983;52.010;5.420;2023-03-19T02:16:23;101096.16;;;10.94;100.00
72110;BME280;59983;52.010;5.420;2023-03-19T02:18:49;101096.16;;;10.94;100.00
72110;BME280;59983;52.010;5.420;2023-03-19T02:21:17;101098.06;;;10.94;100.00
72110;BME280;59983;52.010;5.420;2023-03-19T02:26:30;101097.50;;;11.00;100.00
72110;BME280;59983;52.010;5.420;2023-03-19T02:28:57;101097.50;;;11.00;100.00
72110;BME280;59983;52.010;5.420;2023-03-19T02:31:23;101098.75;;;11.03;100.00
72110;BME280;59983;52.010;5.420;2023-03-19T02:36:36;101096.41;;;10.89;100.00
72110;BME280;59983;52.010;5.420;2023-03-19T02:39:11;101102.16;;;10.88;100.00
72110;BME280;59983;52.010;5.420;2023-03-19T02:41:40;101094.25;;;10.83;100.00
72110;BME280;59983;52.010;5.420;2023-03-19T02:44:10;101094.81;;;10.88;100.00
72110;BME280;59983;52.010;5.420;2023-03-19T02:46:37;101096.06;;;10.91;100.00
72110;BME280;59983;52.010;5.420;2023-03-19T02:49:03;101104.09;;;10.87;100.00
72110;BME280;59983;52.010;5.420;2023-03-19T02:51:30;101104.75;;;10.84;100.00
72110;BME280;59983;52.010;5.420;2023-03-19T02:53:57;101106.69;;;10.84;100.00
72110;BME280;59983;52.010;5.420;2023-03-19T02:56:26;101096.06;;;10.78;100.00
72110;BME280;59983;52.010;5.420;2023-03-19T02:58:52;101110.88;;;10.81;100.00
72110;BME280;59983;52.010;5.420;2023-03-19T03:01:19;101117.44;;;10.80;100.00
72110;BME280;59983;52.010;5.420;2023-03-19T03:03:46;101112.78;;;10.81;100.00
72110;BME280;59983;52.010;5.420;2023-03-19T03:06:12;101110.97;;;10.85;100.00
72110;BME280;59983;52.010;5.420;2023-03-19T03:08:39;101112.91;;;10.84;100.00
72110;BME280;59983;52.010;5.420;2023-03-19T03:11:06;101108.59;;;10.83;100.00
72110;BME280;59983;52.010;5.420;2023-03-19T03:13:32;101101.69;;;10.86;100.00
72110;BME280;59983;52.010;5.420;2023-03-19T03:15:59;101105.53;;;10.85;100.00
72110;BME280;59983;52.010;5.420;2023-03-19T03:18:26;101111.09;;;10.88;100.00
72110;BME280;59983;52.010;5.420;2023-03-19T03:20:53;101113.69;;;10.85;100.00
72110;BME280;59983;52.010;5.420;2023-03-19T03:23:20;101113.22;;;10.83;100.00
72110;BME280;59983;52.010;5.420;2023-03-19T03:25:49;101116.41;;;10.85;100.00
72110;BME280;59983;52.010;5.420;2023-03-19T03:28:16;101118.56;;;10.91;100.00
72110;BME280;59983;52.010;5.420;2023-03-19T03:30:43;101109.53;;;10.87;100.00
72110;BME280;59983;52.010;5.420;2023-03-19T03:33:09;101122.63;;;10.85;100.00
72110;BME280;59983;52.010;5.420;2023-03-19T03:35:36;101121.47;;;10.86;100.00
72110;BME280;59983;52.010;5.420;2023-03-19T03:38:03;101112.09;;;10.84;100.00
72110;BME280;59983;52.010;5.420;2023-03-19T03:40:30;101119.00;;;10.81;100.00
72110;BME280;59983;52.010;5.420;2023-03-19T03:42:56;101115.59;;;10.84;100.00
72110;BME280;59983;52.010;5.420;2023-03-19T03:45:23;101119.44;;;10.83;100.00
72110;BME280;59983;52.010;5.420;2023-03-19T03:47:49;101122.97;;;10.84;100.00
72110;BME280;59983;52.010;5.420;2023-03-19T03:50:16;101115.84;;;10.79;100.00
72110;BME280;59983;52.010;5.420;2023-03-19T03:52:43;101124.19;;;10.74;100.00
72110;BME280;59983;52.010;5.420;2023-03-19T03:55:09;101127.25;;;10.72;100.00
72110;BME280;59983;52.010;5.420;2023-03-19T03:57:36;101135.59;;;10.67;100.00
72110;BME280;59983;52.010;5.420;2023-03-19T04:00:03;101125.88;;;10.66;100.00
72110;BME280;59983;52.010;5.420;2023-03-19T04:02:30;101125.09;;;10.66;100.00
72110;BME280;59983;52.010;5.420;2023-03-19T04:04:56;101131.88;;;10.60;100.00
72110;BME280;59983;52.010;5.420;2023-03-19T04:07:23;101131.66;;;10.53;100.00
72110;BME280;59983;52.010;5.420;2023-03-19T04:09:49;101122.03;;;10.43;100.00
72110;BME280;59983;52.010;5.420;2023-03-19T04:12:16;101119.63;;;10.41;100.00
72110;BME280;59983;52.010;5.420;2023-03-19T04:14:43;101120.78;;;10.40;100.00
72110;BME280;59983;52.010;5.420;2023-03-19T04:17:09;101112.97;;;10.39;100.00
72110;BME280;59983;52.010;5.420;2023-03-19T04:19:36;101129.34;;;10.30;100.00
72110;BME280;59983;52.010;5.420;2023-03-19T04:22:02;101128.44;;;10.26;100.00
72110;BME280;59983;52.010;5.420;2023-03-19T04:24:29;101128.63;;;10.21;100.00
72110;BME280;59983;52.010;5.420;2023-03-19T04:26:56;101128.88;;;10.28;100.00
72110;BME280;59983;52.010;5.420;2023-03-19T04:29:22;101136.88;;;10.25;100.00
72110;BME280;59983;52.010;5.420;2023-03-19T04:31:49;101133.19;;;10.29;100.00
72110;BME280;59983;52.010;5.420;2023-03-19T04:34:16;101122.09;;;10.22;100.00
72110;BME280;59983;52.010;5.420;2023-03-19T04:36:42;101134.03;;;10.21;100.00
72110;BME280;59983;52.010;5.420;2023-03-19T04:39:09;101139.88;;;10.11;100.00
72110;BME280;59983;52.010;5.420;2023-03-19T04:41:35;101144.84;;;10.09;100.00
72110;BME280;59983;52.010;5.420;2023-03-19T04:44:02;101138.63;;;10.08;100.00
72110;BME280;59983;52.010;5.420;2023-03-19T04:46:29;101141.09;;;10.01;100.00
72110;BME280;59983;52.010;5.420;2023-03-19T04:48:55;101137.22;;;9.90;100.00
72110;BME280;59983;52.010;5.420;2023-03-19T04:51:22;101130.19;;;9.89;100.00
72110;BME280;59983;52.010;5.420;2023-03-19T04:53:49;101136.72;;;9.88;100.00
72110;BME280;59983;52.010;5.420;2023-03-19T04:56:15;101130.06;;;9.85;100.00
72110;BME280;59983;52.010;5.420;2023-03-19T04:58:43;101123.66;;;9.90;100.00
72110;BME280;59983;52.010;5.420;2023-03-19T05:01:10;101141.91;;;9.81;100.00
72110;BME280;59983;52.010;5.420;2023-03-19T05:03:37;101144.44;;;9.65;100.00
72110;BME280;59983;52.010;5.420;2023-03-19T05:06:04;101148.69;;;9.45;100.00
72110;BME280;59983;52.010;5.420;2023-03-19T05:08:31;101147.72;;;9.50;100.00
72110;BME280;59983;52.010;5.420;2023-03-19T05:10:57;101163.38;;;9.44;100.00
72110;BME280;59983;52.010;5.420;2023-03-19T05:13:23;101163.38;;;9.44;100.00
72110;BME280;59983;52.010;5.420;2023-03-19T05:15:52;101163.78;;;9.55;100.00
72110;BME280;59983;52.010;5.420;2023-03-19T05:18:19;101164.44;;;9.52;100.00
72110;BME280;59983;52.010;5.420;2023-03-19T05:20:46;101173.78;;;9.33;100.00
72110;BME280;59983;52.010;5.420;2023-03-19T05:23:13;101177.66;;;9.24;100.00
72110;BME280;59983;52.010;5.420;2023-03-19T05:25:40;101181.09;;;9.12;100.00
72110;BME280;59983;52.010;5.420;2023-03-19T05:28:07;101180.97;;;9.00;100.00
72110;BME280;59983;52.010;5.420;2023-03-19T05:30:34;101182.13;;;8.90;100.00
72110;BME280;59983;52.010;5.420;2023-03-19T05:33:01;101181.84;;;8.83;100.00
72110;BME280;59983;52.010;5.420;2023-03-19T05:35:29;101179.09;;;8.92;100.00
72110;BME280;59983;52.010;5.420;2023-03-19T05:37:56;101185.22;;;9.09;100.00
72110;BME280;59983;52.010;5.420;2023-03-19T05:40:23;101185.38;;;9.13;100.00
72110;BME280;59983;52.010;5.420;2023-03-19T05:42:49;101187.34;;;9.04;100.00
72110;BME280;59983;52.010;5.420;2023-03-19T05:45:16;101190.38;;;9.02;100.00
72110;BME280;59983;52.010;5.420;2023-03-19T05:47:46;101196.06;;;9.01;100.00
72110;BME280;59983;52.010;5.420;2023-03-19T05:50:13;101194.06;;;8.89;100.00
72110;BME280;59983;52.010;5.420;2023-03-19T05:52:40;101191.31;;;8.98;100.00
72110;BME280;59983;52.010;5.420;2023-03-19T05:55:07;101199.25;;;9.12;100.00
72110;BME280;59983;52.010;5.420;2023-03-19T05:57:35;101192.59;;;9.00;100.00
72110;BME280;59983;52.010;5.420;2023-03-19T06:00:03;101210.56;;;9.05;100.00
72110;BME280;59983;52.010;5.420;2023-03-19T06:02:32;101211.72;;;8.95;100.00
72110;BME280;59983;52.010;5.420;2023-03-19T06:04:59;101210.94;;;8.95;100.00
72110;BME280;59983;52.010;5.420;2023-03-19T06:07:25;101214.56;;;8.99;100.00
72110;BME280;59983;52.010;5.420;2023-03-19T06:09:52;101214.72;;;9.02;100.00
72110;BME280;59983;52.010;5.420;2023-03-19T06:12:18;101218.69;;;9.05;100.00
72110;BME280;59983;52.010;5.420;2023-03-19T06:14:45;101222.84;;;9.02;100.00
72110;BME280;59983;52.010;5.420;2023-03-19T06:17:13;101225.72;;;8.97;100.00
72110;BME280;59983;52.010;5.420;2023-03-19T06:19:39;101225.56;;;8.94;100.00
72110;BME280;59983;52.010;5.420;2023-03-19T06:22:06;101228.59;;;8.92;100.00
72110;BME280;59983;52.010;5.420;2023-03-19T06:24:32;101233.69;;;8.94;100.00
72110;BME280;59983;52.010;5.420;2023-03-19T06:26:59;101240.53;;;8.91;100.00
72110;BME280;59983;52.010;5.420;2023-03-19T06:29:26;101240.72;;;8.86;100.00
72110;BME280;59983;52.010;5.420;2023-03-19T06:31:52;101242.97;;;8.84;100.00
72110;BME280;59983;52.010;5.420;2023-03-19T06:34:22;101239.94;;;8.77;100.00
72110;BME280;59983;52.010;5.420;2023-03-19T06:36:48;101240.91;;;8.72;100.00
72110;BME280;59983;52.010;5.420;2023-03-19T06:39:15;101244.34;;;8.90;100.00
72110;BME280;59983;52.010;5.420;2023-03-19T06:41:41;101241.66;;;8.90;100.00
72110;BME280;59983;52.010;5.420;2023-03-19T06:44:08;101248.63;;;8.91;100.00
72110;BME280;59983;52.010;5.420;2023-03-19T06:46:34;101254.84;;;8.92;100.00
72110;BME280;59983;52.010;5.420;2023-03-19T06:49:01;101254.84;;;8.92;100.00
72110;BME280;59983;52.010;5.420;2023-03-19T06:51:28;101257.34;;;9.05;100.00
72110;BME280;59983;52.010;5.420;2023-03-19T06:53:54;101264.28;;;9.24;100.00
72110;BME280;59983;52.010;5.420;2023-03-19T06:56:22;101261.53;;;9.32;100.00
72110;BME280;59983;52.010;5.420;2023-03-19T06:58:48;101269.44;;;9.46;100.00
72110;BME280;59983;52.010;5.420;2023-03-19T07:01:15;101263.69;;;9.48;100.00
72110;BME280;59983;52.010;5.420;2023-03-19T07:03:41;101265.25;;;9.57;100.00
72110;BME280;59983;52.010;5.420;2023-03-19T07:06:08;101265.66;;;9.68;100.00
72110;BME280;59983;52.010;5.420;2023-03-19T07:08:34;101275.19;;;9.74;100.00
72110;BME280;59983;52.010;5.420;2023-03-19T07:11:05;101270.22;;;9.76;100.00
72110;BME280;59983;52.010;5.420;2023-03-19T07:13:33;101276.31;;;9.73;100.00
72110;BME280;59983;52.010;5.420;2023-03-19T07:15:59;101288.56;;;9.71;100.00
72110;BME280;59983;52.010;5.420;2023-03-19T07:18:26;101278.84;;;9.70;100.00
72110;BME280;59983;52.010;5.420;2023-03-19T07:20:52;101282.56;;;9.65;100.00
72110;BME280;59983;52.010;5.420;2023-03-19T07:23:19;101287.19;;;9.64;100.00
72110;BME280;59983;52.010;5.420;2023-03-19T07:25:46;101289.91;;;9.64;100.00
72110;BME280;59983;52.010;5.420;2023-03-19T07:28:13;101295.31;;;9.64;100.00
72110;BME280;59983;52.010;5.420;2023-03-19T07:30:39;101300.06;;;9.68;100.00
72110;BME280;59983;52.010;5.420;2023-03-19T07:33:06;101306.00;;;9.61;100.00
72110;BME280;59983;52.010;5.420;2023-03-19T07:35:33;101313.53;;;9.55;100.00
72110;BME280;59983;52.010;5.420;2023-03-19T07:38:00;101314.34;;;9.47;100.00
72110;BME280;59983;52.010;5.420;2023-03-19T07:40:28;101309.41;;;9.49;100.00
72110;BME280;59983;52.010;5.420;2023-03-19T07:42:54;101310.03;;;9.55;100.00
72110;BME280;59983;52.010;5.420;2023-03-19T07:45:21;101312.41;;;9.56;100.00
72110;BME280;59983;52.010;5.420;2023-03-19T07:47:50;101324.03;;;9.57;100.00
72110;BME280;59983;52.010;5.420;2023-03-19T07:50:18;101324.94;;;9.61;100.00
72110;BME280;59983;52.010;5.420;2023-03-19T07:52:48;101326.69;;;9.65;100.00
72110;BME280;59983;52.010;5.420;2023-03-19T07:55:16;101332.75;;;9.62;100.00
72110;BME280;59983;52.010;5.420;2023-03-19T07:57:43;101328.28;;;9.67;100.00
72110;BME280;59983;52.010;5.420;2023-03-19T08:00:10;101335.94;;;9.64;100.00
72110;BME280;59983;52.010;5.420;2023-03-19T08:02:37;101332.91;;;9.66;100.00
72110;BME280;59983;52.010;5.420;2023-03-19T08:05:04;101329.06;;;9.67;100.00
72110;BME280;59983;52.010;5.420;2023-03-19T08:07:31;101336.19;;;9.72;100.00
72110;BME280;59983;52.010;5.420;2023-03-19T08:09:57;101337.16;;;9.76;100.00
72110;BME280;59983;52.010;5.420;2023-03-19T08:12:24;101346.06;;;9.76;100.00
72110;BME280;59983;52.010;5.420;2023-03-19T08:14:51;101346.41;;;9.75;100.00
72110;BME280;59983;52.010;5.420;2023-03-19T08:17:17;101350.03;;;9.79;100.00
72110;BME280;59983;52.010;5.420;2023-03-19T08:19:44;101349.06;;;9.83;100.00
72110;BME280;59983;52.010;5.420;2023-03-19T08:22:12;101354.16;;;9.85;100.00
72110;BME280;59983;52.010;5.420;2023-03-19T08:24:38;101360.38;;;9.85;100.00
72110;BME280;59983;52.010;5.420;2023-03-19T08:27:05;101360.53;;;9.80;100.00
72110;BME280;59983;52.010;5.420;2023-03-19T08:29:33;101354.81;;;9.82;100.00
72110;BME280;59983;52.010;5.420;2023-03-19T08:31:59;101369.78;;;9.79;100.00
72110;BME280;59983;52.010;5.420;2023-03-19T08:34:26;101363.13;;;9.77;100.00
72110;BME280;59983;52.010;5.420;2023-03-19T08:36:53;101368.38;;;9.82;100.00
72110;BME280;59983;52.010;5.420;2023-03-19T08:39:19;101361.97;;;9.86;100.00
72110;BME280;59983;52.010;5.420;2023-03-19T08:41:46;101373.59;;;9.87;100.00
72110;BME280;59983;52.010;5.420;2023-03-19T08:44:12;101371.03;;;9.90;100.00
72110;BME280;59983;52.010;5.420;2023-03-19T08:46:39;101367.31;;;9.95;100.00
72110;BME280;59983;52.010;5.420;2023-03-19T08:49:08;101372.25;;;10.02;100.00
72110;BME280;59983;52.010;5.420;2023-03-19T08:51:34;101371.06;;;10.11;100.00
72110;BME280;59983;52.010;5.420;2023-03-19T08:54:01;101378.22;;;10.16;100.00
72110;BME280;59983;52.010;5.420;2023-03-19T08:56:28;101370.84;;;10.25;100.00
72110;BME280;59983;52.010;5.420;2023-03-19T08:58:55;101379.25;;;10.32;100.00
72110;BME280;59983;52.010;5.420;2023-03-19T09:01:22;101378.88;;;10.42;100.00
72110;BME280;59983;52.010;5.420;2023-03-19T09:03:49;101392.28;;;10.39;100.00
72110;BME280;59983;52.010;5.420;2023-03-19T09:06:16;101389.91;;;10.37;100.00
72110;BME280;59983;52.010;5.420;2023-03-19T09:08:42;101405.66;;;10.44;100.00
72110;BME280;59983;52.010;5.420;2023-03-19T09:11:10;101395.06;;;10.51;100.00
72110;BME280;59983;52.010;5.420;2023-03-19T09:13:36;101396.97;;;10.50;100.00
72110;BME280;59983;52.010;5.420;2023-03-19T09:16:03;101404.00;;;10.52;100.00
72110;BME280;59983;52.010;5.420;2023-03-19T09:18:30;101409.63;;;10.46;100.00
72110;BME280;59983;52.010;5.420;2023-03-19T09:20:57;101409.50;;;10.43;100.00
72110;BME280;59983;52.010;5.420;2023-03-19T09:23:24;101411.25;;;10.39;100.00
72110;BME280;59983;52.010;5.420;2023-03-19T09:25:51;101411.72;;;10.41;100.00
72110;BME280;59983;52.010;5.420;2023-03-19T09:28:17;101406.56;;;10.48;100.00
72110;BME280;59983;52.010;5.420;2023-03-19T09:30:45;101405.44;;;10.49;100.00
72110;BME280;59983;52.010;5.420;2023-03-19T09:33:14;101418.03;;;10.54;100.00
72110;BME280;59983;52.010;5.420;2023-03-19T09:35:41;101416.97;;;10.46;100.00
72110;BME280;59983;52.010;5.420;2023-03-19T09:38:08;101417.94;;;10.41;100.00
72110;BME280;59983;52.010;5.420;2023-03-19T09:40:37;101420.84;;;10.36;100.00
72110;BME280;59983;52.010;5.420;2023-03-19T09:45:37;101441.03;;;10.47;100.00
72110;BME280;59983;52.010;5.420;2023-03-19T09:48:06;101438.31;;;10.47;100.00
72110;BME280;59983;52.010;5.420;2023-03-19T09:50:37;101442.69;;;10.40;100.00
72110;BME280;59983;52.010;5.420;2023-03-19T09:53:20;101451.16;;;10.38;100.00
72110;BME280;59983;52.010;5.420;2023-03-19T09:55:50;101449.91;;;10.36;100.00
72110;BME280;59983;52.010;5.420;2023-03-19T09:58:21;101452.00;;;10.30;100.00
72110;BME280;59983;52.010;5.420;2023-03-19T10:00:49;101445.44;;;10.31;100.00
72110;BME280;59983;52.010;5.420;2023-03-19T10:03:24;101453.06;;;10.38;100.00
72110;BME280;59983;52.010;5.420;2023-03-19T10:09:31;101458.72;;;10.54;100.00
72110;BME280;59983;52.010;5.420;2023-03-19T10:17:33;101458.72;;;10.74;100.00
72110;BME280;59983;52.010;5.420;2023-03-19T10:20:50;101458.38;;;10.76;100.00
72110;BME280;59983;52.010;5.420;2023-03-19T10:23:22;101461.09;;;10.76;100.00
72110;BME280;59983;52.010;5.420;2023-03-19T10:25:53;101463.75;;;10.85;100.00
72110;BME280;59983;52.010;5.420;2023-03-19T10:28:21;101464.88;;;10.84;100.00
72110;BME280;59983;52.010;5.420;2023-03-19T10:31:17;101466.34;;;10.81;100.00
72110;BME280;59983;52.010;5.420;2023-03-19T10:36:34;101465.69;;;10.84;100.00
72110;BME280;59983;52.010;5.420;2023-03-19T10:39:01;101476.53;;;10.84;100.00
72110;BME280;59983;52.010;5.420;2023-03-19T10:41:49;101465.03;;;10.87;100.00
72110;BME280;59983;52.010;5.420;2023-03-19T10:44:51;101469.91;;;10.94;100.00
72110;BME280;59983;52.010;5.420;2023-03-19T10:47:16;101477.25;;;10.93;100.00
72110;BME280;59983;52.010;5.420;2023-03-19T10:49:45;101481.78;;;10.89;100.00
72110;BME280;59983;52.010;5.420;2023-03-19T10:52:21;101474.75;;;10.88;100.00
72110;BME280;59983;52.010;5.420;2023-03-19T10:54:54;101483.81;;;10.92;100.00
72110;BME280;59983;52.010;5.420;2023-03-19T10:57:25;101484.59;;;10.93;100.00
72110;BME280;59983;52.010;5.420;2023-03-19T10:59:53;101488.56;;;10.95;100.00
72110;BME280;59983;52.010;5.420;2023-03-19T11:02:22;101494.94;;;10.99;100.00
72110;BME280;59983;52.010;5.420;2023-03-19T11:05:47;101502.63;;;10.97;100.00
72110;BME280;59983;52.010;5.420;2023-03-19T11:10:27;101507.72;;;10.78;100.00
72110;BME280;59983;52.010;5.420;2023-03-19T11:12:57;101509.31;;;10.79;100.00
72110;BME280;59983;52.010;5.420;2023-03-19T11:15:34;101508.97;;;10.81;100.00
72110;BME280;59983;52.010;5.420;2023-03-19T11:18:15;101519.66;;;10.77;100.00
72110;BME280;59983;52.010;5.420;2023-03-19T11:20:49;101520.22;;;10.70;100.00
72110;BME280;59983;52.010;5.420;2023-03-19T11:23:19;101521.66;;;10.68;100.00
72110;BME280;59983;52.010;5.420;2023-03-19T11:25:51;101525.03;;;10.65;100.00
72110;BME280;59983;52.010;5.420;2023-03-19T11:28:22;101528.06;;;10.63;100.00
72110;BME280;59983;52.010;5.420;2023-03-19T11:33:43;101516.38;;;10.71;100.00
72110;BME280;59983;52.010;5.420;2023-03-19T11:36:27;101524.31;;;10.76;100.00
72110;BME280;59983;52.010;5.420;2023-03-19T11:44:50;101526.38;;;10.80;100.00
72110;BME280;59983;52.010;5.420;2023-03-19T11:55:56;101518.56;;;10.99;100.00
72110;BME280;59983;52.010;5.420;2023-03-19T12:07:03;101511.13;;;11.29;99.06
72110;BME280;59983;52.010;5.420;2023-03-19T12:12:25;101517.69;;;11.49;98.09
72110;BME280;59983;52.010;5.420;2023-03-19T12:15:26;101523.50;;;11.59;98.53
72110;BME280;59983;52.010;5.420;2023-03-19T12:18:26;101523.78;;;11.79;97.77
72110;BME280;59983;52.010;5.420;2023-03-19T12:21:31;101527.22;;;11.88;97.68
72110;BME280;59983;52.010;5.420;2023-03-19T12:35:00;101509.16;;;12.29;95.47
72110;BME280;59983;52.010;5.420;2023-03-19T12:37:31;101515.81;;;12.43;93.65
72110;BME280;59983;52.010;5.420;2023-03-19T12:40:16;101511.84;;;12.53;94.40
72110;BME280;59983;52.010;5.420;2023-03-19T12:42:47;101519.00;;;12.58;93.59
72110;BME280;59983;52.010;5.420;2023-03-19T12:45:31;101517.97;;;12.62;92.30
72110;BME280;59983;52.010;5.420;2023-03-19T12:48:07;101526.81;;;12.71;92.63
72110;BME280;59983;52.010;5.420;2023-03-19T12:50:39;101517.97;;;12.74;91.07
72110;BME280;59983;52.010;5.420;2023-03-19T12:53:18;101514.53;;;12.90;91.65
72110;BME280;59983;52.010;5.420;2023-03-19T12:55:53;101517.72;;;13.32;89.38
72110;BME280;59983;52.010;5.420;2023-03-19T12:58:47;101521.38;;;13.24;90.67
72110;BME280;59983;52.010;5.420;2023-03-19T13:01:40;101525.34;;;13.14;89.76
72110;BME280;59983;52.010;5.420;2023-03-19T13:04:30;101532.28;;;13.12;90.35
72110;BME280;59983;52.010;5.420;2023-03-19T13:07:10;101536.59;;;13.13;91.37
72110;BME280;59983;52.010;5.420;2023-03-19T13:09:50;101537.28;;;13.22;88.31
72110;BME280;59983;52.010;5.420;2023-03-19T13:12:24;101534.22;;;13.23;88.14
72110;BME280;59983;52.010;5.420;2023-03-19T13:17:39;101535.41;;;13.38;87.55
72110;BME280;59983;52.010;5.420;2023-03-19T13:20:19;101535.50;;;13.42;87.80
72110;BME280;59983;52.010;5.420;2023-03-19T13:22:55;101534.56;;;13.50;86.24
72110;BME280;59983;52.010;5.420;2023-03-19T13:25:30;101535.66;;;13.33;86.42
72110;BME280;59983;52.010;5.420;2023-03-19T13:27:58;101533.97;;;13.28;86.95
72110;BME280;59983;52.010;5.420;2023-03-19T13:30:25;101538.41;;;13.21;86.88
72110;BME280;59983;52.010;5.420;2023-03-19T13:33:01;101533.16;;;13.16;86.84
72110;BME280;59983;52.010;5.420;2023-03-19T13:35:38;101538.53;;;13.12;87.14
72110;BME280;59983;52.010;5.420;2023-03-19T13:38:59;101532.63;;;13.10;86.42
72110;BME280;59983;52.010;5.420;2023-03-19T13:41:00;101538.19;;;13.14;86.82
72110;BME280;59983;52.010;5.420;2023-03-19T13:46:31;101546.25;;;13.10;87.10
72110;BME280;59983;52.010;5.420;2023-03-19T13:49:29;101552.50;;;13.11;87.97
72110;BME280;59983;52.010;5.420;2023-03-19T13:51:59;101562.16;;;13.08;86.62
72110;BME280;59983;52.010;5.420;2023-03-19T13:54:35;101551.84;;;13.01;86.37
72110;BME280;59983;52.010;5.420;2023-03-19T13:57:16;101555.34;;;13.02;86.93
72110;BME280;59983;52.010;5.420;2023-03-19T13:59:46;101554.16;;;13.15;87.06
72110;BME280;59983;52.010;5.420;2023-03-19T14:04:59;101550.97;;;13.38;85.33
72110;BME280;59983;52.010;5.420;2023-03-19T14:07:29;101544.09;;;14.47;83.61